Flight Track Log - Related Links

Times and Time Zones

All times are in EST time to prevent confusion due to time zone crossing. See the N789EX flight status page for this flight to view local times or setup timezone preferences in your user account.

Time Position Orientation Groundspeed Altitude Reporting Facility
EST Latitude Longitude Course Direction KTS MPH feet Rate Location/Type
Thu 07:35:07 PM 47.2519 -119.3447 299° West 172 198 2,600  Level Seattle Center
Thu 07:36:08 PM 47.2822 -119.4244 299° West 228 262 4,500 1,967 Climbing Seattle Center
Thu 07:37:09 PM 47.3150 -119.5219 296° West 261 300 6,600 2,066 Climbing Seattle Center
Thu 07:38:10 PM 47.3500 -119.6253 297° West 280 322 8,700 1,383 Climbing Seattle Center
Thu 07:43:35 PM 47.5405 -120.2150 297° West 300 345 15,500 1,124 Climbing FlightAware ADS-B
Thu 07:44:13 PM 47.5635 -120.2850 296° West 299 344 15,500  Level FlightAware ADS-B
Thu 07:44:43 PM 47.5820 -120.3410 296° West 300 345 15,500  Level FlightAware ADS-B
Thu 07:45:24 PM 47.6065 -120.4170 296° West 300 345 15,500  Level FlightAware ADS-B
Thu 07:45:55 PM 47.6245 -120.4730 296° West 301 346 15,500  Level FlightAware ADS-B
Thu 07:46:22 PM 47.6408 -120.5230 296° West 300 345 15,500  Level FlightAware ADS-B
Thu 07:47:00 PM 47.6636 -120.5940 296° West 288 331 15,500  Level FlightAware ADS-B
Thu 07:47:31 PM 47.6810 -120.6480 296° West 288 331 15,500  Level FlightAware ADS-B
Thu 07:48:02 PM 47.6984 -120.7020 296° West 287 330 15,500  Level FlightAware ADS-B
Thu 07:48:32 PM 47.7156 -120.7560 295° West 284 327 15,500  Level FlightAware ADS-B
Thu 07:49:03 PM 47.7328 -120.8090 296° West 283 326 15,500  Level FlightAware ADS-B
Thu 07:49:33 PM 47.7498 -120.8630 295° West 285 328 15,500  Level FlightAware ADS-B
Thu 07:50:03 PM 47.7666 -120.9160 295° West 284 327 15,500  Level FlightAware ADS-B
Thu 07:50:33 PM 47.7835 -120.9690 295° West 282 325 15,500  Level FlightAware ADS-B
Thu 07:51:03 PM 47.8001 -121.0210 295° West 281 323 15,500  Level FlightAware ADS-B
Thu 07:51:34 PM 47.8170 -121.0740 295° West 281 323 15,500  Level FlightAware ADS-B
Thu 07:52:04 PM 47.8336 -121.1270 295° West 280 322 15,500  Level FlightAware ADS-B
Thu 07:52:28 PM 47.8472 -121.1700 295° West 285 328 15,500  Level FlightAware ADS-B
Thu 07:52:34 PM 47.8499 -121.1800 292° West 286 329 15,500  Level FlightAware ADS-B
Thu 07:52:40 PM 47.8525 -121.1910 289° West 286 329 15,500  Level FlightAware ADS-B
Thu 07:52:48 PM 47.8548 -121.2060 283° West 286 329 15,500  Level FlightAware ADS-B
Thu 07:52:58 PM 47.8565 -121.2260 277° West 286 329 15,500 -150 Level FlightAware ADS-B
Thu 07:53:28 PM 47.8602 -121.2860 275° West 283 326 15,400 -787 Descending FlightAware ADS-B
Thu 07:53:59 PM 47.8640 -121.3440 276° West 280 322 14,700 -1,345 Descending FlightAware ADS-B
Thu 07:54:26 PM 47.8673 -121.3970 275° West 280 322 14,100 -1,345 Descending FlightAware ADS-B
Thu 07:54:57 PM 47.8711 -121.4550 276° West 276 318 13,400 -1,377 Descending FlightAware ADS-B
Thu 07:55:27 PM 47.8747 -121.5110 275° West 273 314 12,700 -1,475 Descending FlightAware ADS-B
Thu 07:55:58 PM 47.8783 -121.5690 275° West 273 314 11,900 -1,452 Descending FlightAware ADS-B
Thu 07:56:29 PM 47.8818 -121.6280 275° West 276 318 11,200 -1,412 Descending FlightAware ADS-B
Thu 07:56:49 PM 47.8840 -121.6650 275° West 273 314 10,700 -1,250 Descending FlightAware ADS-B
Thu 07:56:53 PM 47.8840 -121.6730 270° West 273 314 10,700 -667 Level FlightAware ADS-B
Thu 07:56:58 PM 47.8833 -121.6830 264° West 276 318 10,600 -600 Descending FlightAware ADS-B
Thu 07:57:03 PM 47.8822 -121.6910 258° West 278 320 10,600 -750 Level FlightAware ADS-B
Thu 07:57:06 PM 47.8811 -121.6970 255° West 280 322 10,500 -1,000 Descending FlightAware ADS-B
Thu 07:57:09 PM 47.8793 -121.7030 246° West 280 322 10,500  Level FlightAware ADS-B
Thu 07:57:14 PM 47.8766 -121.7110 243° Southwest 280 322 10,500  Level FlightAware ADS-B
Thu 07:57:18 PM 47.8738 -121.7180 239° Southwest 282 325 10,500  Level FlightAware ADS-B
Thu 07:57:23 PM 47.8699 -121.7250 230° Southwest 286 329 10,500  Level FlightAware ADS-B
Thu 07:57:29 PM 47.8645 -121.7340 228° Southwest 292 336 10,500 -1,071 Level FlightAware ADS-B
Thu 07:57:51 PM 47.8421 -121.7640 222° Southwest 292 336 10,000 -1,579 Descending FlightAware ADS-B
Thu 07:58:07 PM 47.8264 -121.7860 223° Southwest 291 335 9,500 -2,129 Descending FlightAware ADS-B
Thu 07:58:22 PM 47.8115 -121.8060 222° Southwest 288 331 8,900 -2,323 Descending FlightAware ADS-B
Thu 07:58:38 PM 47.7958 -121.8270 222° Southwest 287 330 8,300 -2,129 Descending FlightAware ADS-B
Thu 07:58:53 PM 47.7811 -121.8465 222° Southwest 284 327 7,800 -2,100 Descending FlightAware ADS-B
Thu 07:58:58 PM 47.7764 -121.8530 223° Southwest 283 326 7,600 -2,700 Descending FlightAware ADS-B
Thu 07:59:13 PM 47.7613 -121.8730 222° Southwest 280 322 6,900 -2,600 Descending FlightAware ADS-B
Thu 07:59:28 PM 47.7471 -121.8920 222° Southwest 277 319 6,300 -2,700 Descending FlightAware ADS-B
Thu 07:59:33 PM 47.7425 -121.8990 226° Southwest 275 316 6,000 -3,000 Descending FlightAware ADS-B
Thu 07:59:36 PM 47.7401 -121.9040 234° Southwest 274 315 5,900 -2,571 Descending FlightAware ADS-B
Thu 07:59:40 PM 47.7376 -121.9090 233° Southwest 272 313 5,700 -2,250 Descending FlightAware ADS-B
Thu 07:59:44 PM 47.7355 -121.9160 246° West 269 310 5,600 -2,000 Descending FlightAware ADS-B
Thu 07:59:49 PM 47.7339 -121.9250 255° West 267 307 5,400 -2,400 Descending FlightAware ADS-B
Thu 07:59:54 PM 47.7333 -121.9340 264° West 265 305 5,200 -3,000 Descending FlightAware ADS-B
Thu 07:59:57 PM 47.7334 -121.9390 272° West 263 303 5,000 -3,000 Descending FlightAware ADS-B
Thu 08:00:06 PM 47.7342 -121.9550 274° West 263 303 4,600 -2,750 Descending FlightAware ADS-B
Thu 08:00:21 PM 47.7364 -121.9820 277° West 264 304 3,900 -2,800 Descending FlightAware ADS-B
Thu 08:00:36 PM 47.7388 -122.0100 277° West 261 300 3,200 -2,323 Descending FlightAware ADS-B
Thu 08:00:52 PM 47.7411 -122.0380 277° West 265 305 2,700 -1,355 Descending FlightAware ADS-B
Thu 08:01:07 PM 47.7432 -122.0660 276° West 264 304 2,500 -387 Descending FlightAware ADS-B
Thu 08:01:23 PM 47.7453 -122.0930 277° West 264 304 2,500  Level FlightAware ADS-B
Thu 08:01:38 PM 47.7475 -122.1200 277° West 264 304 2,500  Level FlightAware ADS-B
Thu 08:01:53 PM 47.7495 -122.1470 276° West 264 304 2,500  Level FlightAware ADS-B
Thu 08:02:08 PM 47.7515 -122.1730 277° West 240 276 2,500  Level FlightAware ADS-B
Thu 08:02:21 PM 47.7532 -122.1950 277° West 232 267 2,500  Level FlightAware ADS-B
Thu 08:02:37 PM 47.7551 -122.2190 277° West 232 267 2,500  Level FlightAware ADS-B
Thu 08:02:52 PM 47.7569 -122.2440 276° West 232 267 2,500 -581 Level FlightAware ADS-B
Thu 08:03:08 PM 47.7588 -122.2680 277° West 231 266 2,200 -1,091 Descending FlightAware ADS-B
Thu 08:03:25 PM 47.7605 -122.2950 275° West 229 264 1,900 -1,091 Descending FlightAware ADS-B
Thu 08:03:30 PM 47.7599 -122.3020 263° West 227 261 1,800 -750 Descending FlightAware ADS-B
Thu 08:03:33 PM 47.7591 -122.3070 257° West 227 261 1,800 -375 Level FlightAware ADS-B
Thu 08:03:46 PM 47.7526 -122.3260 243° Southwest 230 265 1,700 -194 Descending FlightAware ADS-B
Thu 08:04:04 PM 47.7426 -122.3480 236° Southwest 208 239 1,700  Level FlightAware ADS-B
Thu 08:04:28 PM 47.7308 -122.3750 237° Southwest 196 226 1,700 143 Level FlightAware ADS-B
Thu 08:04:46 PM 47.7215 -122.3960 237° Southwest 196 226 1,800  Climbing FlightAware ADS-B
Thu 08:05:08 PM 47.7098 -122.4190 233° Southwest 190 219 1,700 -133 Descending FlightAware ADS-B
Thu 08:05:31 PM 47.6922 -122.4250 193° South 172 198 1,700  Level FlightAware ADS-B
Thu 08:06:01 PM 47.6691 -122.4200 172° South 173 199 1,700  Level FlightAware ADS-B
Thu 08:06:07 PM 47.6654 -122.4170 151° Southeast 153 176 1,700  Level FlightAware ADS-B
Thu 08:06:11 PM 47.6631 -122.4150 150° Southeast 152 175 1,700  Level FlightAware ADS-B
Thu 08:06:25 PM 47.6549 -122.4090 154° Southeast 150 173 1,700  Level FlightAware ADS-B
Thu 08:06:37 PM 47.6478 -122.4020 146° Southeast 145 167 1,700  Level FlightAware ADS-B
Thu 08:06:52 PM 47.6391 -122.3950 152° Southeast 142 163 1,700  Level FlightAware ADS-B
Thu 08:07:06 PM 47.6310 -122.3880 150° Southeast 143 165 1,700 -222 Level FlightAware ADS-B
Thu 08:07:19 PM 47.6235 -122.3820 152° Southeast 147 169 1,600 -811 Descending FlightAware ADS-B
Thu 08:07:43 PM 47.6093 -122.3700 150° Southeast 147 169 1,200 -857 Descending FlightAware ADS-B
Thu 08:08:01 PM 47.5986 -122.3610 150° Southeast 146 168 1,000 -811 Descending FlightAware ADS-B
Thu 08:08:20 PM 47.5877 -122.3510 148° Southeast 145 167 700 -342 Descending FlightAware ADS-B
Thu 08:10:39 PM 47.5119 -122.2861 148° Southeast 142 163 100 -259 Descending Seattle Center

Login

Don't have an account? Register now (free) for customized features, flight alerts, and more!